Aérodrome :
LOGIN :

S'inscrire | Disclaimer

   EN    FR    IT 

 










Légende :    VFR   VFR Marginal   IFR   IFR Intensif   IFR Très Intensif
Visi : 
Plafond : 
>= 8 km
>= 3000ft
5 à 8 km
1000 à 3000 ft
1500m à 5 km
500 à 1000 ft
800 à 1500m
200 à 500 ft
< 800m
< 200 ft
Symboles :   Orages  Brouillard  Fortes neiges  Fortes précipitations  Vent > 20 kt
SIGMETs :   Divers  Orages  Givrage  Turbulence  Onde Orograph.  Cendres Volcan.







- Altitude de l'aérodrome : 274 ft
- Code IATA : PUY


LDPL - Pula

DERNIER METAR :
  • 141230Z 22008KT 9999 OVC040 13/08 Q1007 NOSIG

METARs EXPIRÉS :
  • 141200Z 21008KT 170V240 9999 OVC040 13/09 Q1008 NOSIG
  • 141130Z 21007KT 160V250 9999 OVC040 12/08 Q1008 NOSIG
  • 141100Z 22008KT 180V250 9999 OVC040 12/08 Q1008 NOSIG
  • 141030Z 23006KT 9999 FEW025 OVC035 11/08 Q1009 NOSIG
  • 141000Z 22010KT 9999 -RA FEW020 OVC035 10/08 Q1009 NOSIG

TAF TAF LDPL
Valide du 14 à 12h jusqu'au 15 à 12h UTC


141125Z 1412/1512 22010KT 9999 BKN040 TX13/1413Z TN10/1505Z
TEMPO 1421/1510 22015G25KT
Pas de NOTAMs connus pour ce terrain.



MET'MAP, la Météo Aéronautique d'un coup d'oeil ! - Copyright ORBIFLY Décembre 2007 - Disclaimer

ORBIFLY MET'MAP TEAM :

Programmation & Développement : Alexandra Zaïnal
Conception & Développement : Baudouin d'Aumeries
Co-Programmation & Développement : Marc-Olivier Méhu
Soutien technique & logistique : Manuel Goepfert

Contact : metmap@orbifly.com




SOURCES & CREDITS :

   NOAA